createdAt,value
2022-07-29T00:01:09.425Z,56.10
2022-07-29T00:03:47.340Z,56.00
2022-07-29T00:06:15.890Z,55.90
2022-07-29T00:08:42.830Z,55.90
2022-07-29T00:11:09.801Z,55.90
2022-07-29T00:13:36.765Z,55.90
2022-07-29T00:16:05.013Z,55.90
2022-07-29T00:18:33.306Z,55.90
2022-07-29T00:21:00.740Z,55.70
2022-07-29T00:23:27.952Z,55.60
2022-07-29T00:25:54.882Z,55.50
2022-07-29T00:28:21.842Z,55.50
2022-07-29T00:30:48.787Z,55.40
2022-07-29T00:33:15.766Z,55.50
2022-07-29T00:35:45.505Z,55.50
2022-07-29T00:38:20.845Z,55.60
2022-07-29T00:40:48.730Z,55.60
2022-07-29T00:43:16.080Z,55.70
2022-07-29T00:45:44.166Z,55.80
2022-07-29T00:48:11.570Z,55.80
2022-07-29T00:50:39.875Z,56.00
2022-07-29T00:53:09.154Z,56.20
2022-07-29T00:55:36.954Z,56.30
2022-07-29T00:58:04.783Z,56.20
2022-07-29T01:00:32.287Z,56.30
2022-07-29T01:02:59.819Z,56.20
2022-07-29T01:05:51.028Z,56.20
2022-07-29T01:08:18.553Z,56.20
2022-07-29T01:10:47.986Z,56.30
2022-07-29T01:13:17.574Z,56.70
2022-07-29T01:16:16.207Z,56.90
2022-07-29T01:18:53.527Z,57.30
2022-07-29T01:21:56.531Z,57.90
2022-07-29T01:25:06.250Z,57.40
2022-07-29T01:27:55.383Z,57.50
2022-07-29T01:30:26.964Z,57.70
2022-07-29T01:33:10.907Z,57.80
2022-07-29T01:35:43.487Z,58.00
2022-07-29T01:38:24.951Z,58.00
2022-07-29T01:41:13.419Z,58.30
2022-07-29T01:43:56.912Z,58.20
2022-07-29T01:46:42.507Z,58.40
2022-07-29T01:49:26.722Z,58.40
2022-07-29T01:52:12.107Z,58.50
2022-07-29T01:54:55.059Z,58.60
2022-07-29T01:57:30.384Z,58.70
2022-07-29T02:00:01.658Z,58.90
2022-07-29T02:02:33.607Z,59.20
2022-07-29T02:05:03.869Z,59.70
2022-07-29T02:07:35.071Z,59.60
2022-07-29T02:10:07.851Z,59.60
2022-07-29T02:12:38.688Z,59.80
2022-07-29T02:15:08.507Z,59.90
2022-07-29T02:17:56.004Z,60.00
2022-07-29T02:20:27.040Z,60.00
2022-07-29T02:22:57.773Z,59.80
2022-07-29T02:25:37.052Z,60.20
2022-07-29T02:28:08.463Z,60.30
2022-07-29T02:30:42.681Z,60.50
2022-07-29T02:33:15.093Z,60.70
2022-07-29T02:35:46.220Z,60.80
2022-07-29T02:38:36.362Z,60.80
2022-07-29T02:41:12.864Z,60.80
2022-07-29T02:43:44.489Z,60.90
2022-07-29T02:46:29.395Z,61.00
2022-07-29T02:49:24.454Z,61.10
2022-07-29T02:52:12.507Z,61.30
2022-07-29T02:55:25.989Z,61.50
2022-07-29T02:58:06.510Z,61.70
2022-07-29T03:00:39.999Z,61.60
2022-07-29T03:03:15.844Z,61.40
2022-07-29T03:05:43.009Z,61.40
2022-07-29T03:08:15.199Z,61.40
2022-07-29T03:10:48.054Z,61.60
2022-07-29T03:13:16.881Z,61.40
2022-07-29T03:15:46.269Z,61.20
2022-07-29T03:18:15.993Z,60.60
2022-07-29T03:20:44.196Z,60.20
2022-07-29T03:23:11.349Z,59.90
2022-07-29T03:25:38.521Z,59.80
2022-07-29T03:28:05.674Z,59.70
2022-07-29T03:30:32.585Z,59.80
2022-07-29T03:32:59.506Z,59.70
2022-07-29T03:35:26.692Z,59.60
2022-07-29T03:37:53.591Z,59.30
2022-07-29T03:40:43.660Z,59.20
2022-07-29T03:43:14.339Z,59.10
2022-07-29T03:45:48.601Z,59.40
2022-07-29T03:48:21.725Z,59.10
2022-07-29T03:50:51.561Z,59.30
2022-07-29T03:53:19.264Z,59.40
2022-07-29T03:55:59.417Z,59.50
2022-07-29T03:58:28.768Z,59.60
2022-07-29T04:00:57.456Z,59.80
2022-07-29T04:03:24.758Z,59.90
2022-07-29T04:06:07.829Z,59.90
2022-07-29T04:08:35.700Z,59.90
2022-07-29T04:11:04.101Z,59.80
2022-07-29T04:13:33.621Z,59.80
2022-07-29T04:16:01.101Z,59.90
2022-07-29T04:18:28.143Z,60.00
2022-07-29T04:20:55.104Z,60.00
2022-07-29T04:23:22.137Z,60.10
2022-07-29T04:25:49.292Z,60.30
2022-07-29T04:28:16.205Z,60.50
2022-07-29T04:30:44.031Z,60.80
2022-07-29T04:33:11.133Z,61.10
2022-07-29T04:35:50.028Z,61.20
2022-07-29T04:38:19.361Z,61.30
2022-07-29T04:40:47.116Z,61.50
2022-07-29T04:43:14.386Z,61.50
2022-07-29T04:45:42.857Z,61.70
2022-07-29T04:48:10.217Z,61.80
2022-07-29T04:50:40.862Z,61.80
2022-07-29T04:53:08.610Z,61.90
2022-07-29T04:55:35.642Z,62.00
2022-07-29T04:58:06.223Z,62.10
2022-07-29T05:00:33.818Z,62.20
2022-07-29T05:03:01.060Z,62.40
2022-07-29T05:05:28.218Z,62.60
2022-07-29T05:07:55.178Z,62.90
2022-07-29T05:10:22.424Z,63.90
2022-07-29T05:12:49.537Z,64.20
2022-07-29T05:15:17.565Z,64.60
2022-07-29T05:17:45.553Z,64.90
2022-07-29T05:20:12.574Z,65.30
2022-07-29T05:22:39.510Z,65.70
2022-07-29T05:25:09.313Z,65.80
2022-07-29T05:27:37.693Z,65.60
2022-07-29T05:30:05.576Z,65.60
2022-07-29T05:32:32.711Z,65.60
2022-07-29T05:34:59.632Z,65.70
2022-07-29T05:37:26.550Z,65.50
2022-07-29T05:39:56.617Z,65.80
2022-07-29T05:42:26.474Z,65.20
2022-07-29T05:44:54.388Z,64.70
2022-07-29T05:47:21.461Z,64.00
2022-07-29T05:49:48.756Z,63.10
2022-07-29T05:52:16.051Z,62.60
2022-07-29T05:54:43.561Z,61.30
2022-07-29T05:57:23.083Z,60.80
2022-07-29T05:59:52.028Z,60.40
2022-07-29T06:02:19.733Z,59.40
2022-07-29T06:04:46.860Z,58.50
2022-07-29T06:07:14.206Z,57.60
2022-07-29T06:09:41.287Z,57.10
2022-07-29T06:12:08.647Z,56.90
2022-07-29T06:14:36.474Z,56.60
2022-07-29T06:17:03.620Z,56.30
2022-07-29T06:19:30.554Z,55.60
2022-07-29T06:21:57.452Z,55.70
2022-07-29T06:24:24.355Z,55.70
2022-07-29T06:26:51.314Z,54.90
2022-07-29T06:29:18.198Z,55.00
2022-07-29T06:31:45.199Z,55.00
2022-07-29T06:34:12.172Z,54.50
2022-07-29T06:36:41.439Z,54.00
2022-07-29T06:39:11.637Z,54.30
2022-07-29T06:41:39.129Z,54.20
2022-07-29T06:44:06.099Z,54.50
2022-07-29T06:46:33.596Z,55.20
2022-07-29T06:49:02.514Z,54.90
2022-07-29T06:51:29.801Z,55.00
2022-07-29T06:54:02.974Z,54.90
2022-07-29T06:56:40.097Z,55.20
2022-07-29T06:59:13.084Z,55.70
2022-07-29T07:01:43.931Z,55.90
2022-07-29T07:04:13.309Z,56.10
2022-07-29T07:06:40.542Z,56.50
2022-07-29T07:09:07.991Z,56.60
2022-07-29T07:11:35.474Z,56.70
2022-07-29T07:14:04.118Z,57.10
2022-07-29T07:16:32.481Z,57.40
2022-07-29T07:19:00.058Z,57.10
2022-07-29T07:21:28.793Z,57.30
2022-07-29T07:23:57.363Z,57.00
2022-07-29T07:26:24.356Z,57.10
2022-07-29T07:28:51.367Z,56.50
2022-07-29T07:31:18.621Z,56.40
2022-07-29T07:33:45.659Z,56.10
2022-07-29T07:36:12.672Z,55.70
2022-07-29T07:38:39.626Z,55.30
2022-07-29T07:41:06.759Z,55.10
2022-07-29T07:43:33.771Z,54.50
2022-07-29T07:46:00.750Z,54.30
2022-07-29T07:48:27.895Z,54.00
2022-07-29T07:50:55.005Z,53.70
2022-07-29T07:53:22.736Z,52.80
2022-07-29T07:58:37.123Z,51.90
2022-07-29T08:03:46.353Z,51.30
2022-07-29T08:06:13.365Z,51.80
2022-07-29T08:08:40.256Z,51.20
2022-07-29T08:11:09.778Z,50.90
2022-07-29T08:13:39.379Z,50.50
2022-07-29T08:16:15.822Z,50.10
2022-07-29T08:18:46.177Z,49.80
2022-07-29T08:21:16.030Z,49.20
2022-07-29T08:23:56.160Z,49.60
2022-07-29T08:26:26.892Z,49.90
2022-07-29T08:28:53.812Z,49.40
2022-07-29T08:31:20.910Z,48.60
2022-07-29T08:33:47.938Z,47.80
2022-07-29T08:36:14.861Z,47.70
2022-07-29T08:38:41.869Z,47.60
2022-07-29T08:41:09.001Z,47.40
2022-07-29T08:43:38.221Z,45.80
2022-07-29T08:46:05.342Z,45.60
2022-07-29T08:48:33.338Z,46.10
2022-07-29T08:51:02.705Z,46.80
2022-07-29T08:53:33.062Z,47.20
2022-07-29T08:56:02.684Z,47.60
2022-07-29T08:58:36.640Z,47.00
2022-07-29T09:01:05.055Z,46.70
2022-07-29T09:03:38.476Z,45.60
2022-07-29T09:06:06.345Z,45.20
2022-07-29T09:08:34.753Z,45.40
2022-07-29T09:11:05.588Z,45.90
2022-07-29T09:13:33.091Z,45.50
2022-07-29T09:16:01.182Z,44.80
2022-07-29T09:18:42.211Z,44.70
2022-07-29T09:21:32.775Z,43.80
2022-07-29T09:24:14.698Z,43.10
2022-07-29T09:26:47.028Z,42.60
2022-07-29T09:29:25.458Z,43.60
2022-07-29T09:31:55.921Z,44.80
2022-07-29T09:34:32.388Z,45.60
2022-07-29T09:36:59.297Z,45.60
2022-07-29T09:39:46.862Z,46.00
2022-07-29T09:42:15.905Z,47.50
2022-07-29T09:44:50.873Z,48.50
2022-07-29T09:47:22.576Z,47.70
2022-07-29T09:50:00.338Z,46.70
2022-07-29T09:52:30.791Z,46.70
2022-07-29T09:55:13.573Z,46.10
2022-07-29T09:57:48.479Z,45.00
2022-07-29T10:00:23.953Z,45.00
2022-07-29T10:02:51.837Z,44.50
2022-07-29T10:05:36.605Z,43.40
2022-07-29T10:08:04.723Z,42.60
2022-07-29T10:10:42.615Z,42.00
2022-07-29T10:13:16.545Z,41.40
2022-07-29T10:15:47.198Z,41.20
2022-07-29T10:18:18.170Z,40.80
2022-07-29T10:20:45.509Z,40.30
2022-07-29T10:23:14.266Z,40.30
2022-07-29T10:25:46.419Z,41.00
2022-07-29T10:28:16.425Z,41.60
2022-07-29T10:30:47.531Z,42.70
2022-07-29T10:33:53.448Z,44.00
2022-07-29T10:37:19.404Z,44.10
2022-07-29T10:40:30.744Z,44.50
2022-07-29T10:43:19.816Z,44.20
2022-07-29T10:45:55.626Z,43.10
2022-07-29T10:48:25.125Z,42.40
2022-07-29T10:51:06.894Z,41.60
2022-07-29T10:53:54.049Z,40.50
2022-07-29T10:56:33.286Z,39.80
2022-07-29T10:59:22.935Z,39.30
2022-07-29T11:01:54.266Z,38.90
2022-07-29T11:04:44.622Z,39.60
2022-07-29T11:07:13.540Z,38.40
2022-07-29T11:09:42.174Z,37.80
2022-07-29T11:12:39.519Z,37.80
2022-07-29T11:15:22.484Z,36.80
2022-07-29T11:17:54.780Z,36.70
2022-07-29T11:20:43.230Z,38.70
2022-07-29T11:23:34.779Z,39.60
2022-07-29T11:26:23.025Z,39.20
2022-07-29T11:29:06.361Z,39.20
2022-07-29T11:31:43.746Z,40.00
2022-07-29T11:34:30.553Z,42.00
2022-07-29T11:37:15.798Z,43.10
2022-07-29T11:40:01.920Z,44.50
2022-07-29T11:42:34.389Z,45.00
2022-07-29T11:45:42.496Z,45.90
2022-07-29T11:48:29.411Z,46.30
2022-07-29T11:51:00.134Z,45.30
2022-07-29T11:53:29.154Z,43.50
2022-07-29T11:56:02.612Z,41.60
2022-07-29T11:58:32.378Z,41.90
2022-07-29T12:01:04.219Z,39.50
2022-07-29T12:06:20.961Z,40.60
2022-07-29T12:08:48.202Z,41.10
2022-07-29T12:11:22.444Z,40.30
2022-07-29T12:13:52.467Z,40.10
2022-07-29T12:16:28.087Z,40.50
2022-07-29T12:19:03.577Z,41.60
2022-07-29T12:21:59.338Z,41.20
2022-07-29T12:24:27.452Z,42.80
2022-07-29T12:26:59.106Z,44.30
2022-07-29T12:29:34.612Z,43.40
2022-07-29T12:32:14.289Z,44.50
2022-07-29T12:34:42.318Z,46.30
2022-07-29T12:37:11.124Z,47.70
2022-07-29T12:39:38.795Z,48.10
2022-07-29T12:42:18.661Z,48.10
2022-07-29T12:44:52.078Z,45.90
2022-07-29T12:47:21.298Z,46.30
2022-07-29T12:49:51.355Z,47.10
2022-07-29T12:52:35.578Z,47.80
2022-07-29T12:55:04.672Z,49.10
2022-07-29T12:57:32.849Z,48.40
2022-07-29T13:00:08.787Z,49.80
2022-07-29T13:02:38.877Z,49.90
2022-07-29T13:05:12.053Z,50.70
2022-07-29T13:07:55.674Z,50.90
2022-07-29T13:10:25.841Z,51.10
2022-07-29T13:13:15.397Z,52.50
2022-07-29T13:15:49.633Z,54.40
2022-07-29T13:18:38.835Z,56.70
2022-07-29T13:21:18.977Z,58.00
2022-07-29T13:23:46.140Z,58.10
2022-07-29T13:26:20.719Z,57.80
2022-07-29T13:28:47.708Z,57.60
2022-07-29T13:31:14.652Z,57.40
2022-07-29T13:33:41.628Z,57.80
2022-07-29T13:36:12.834Z,58.10
2022-07-29T13:38:39.799Z,58.80
2022-07-29T13:41:07.172Z,59.70
2022-07-29T13:43:34.100Z,59.10
2022-07-29T13:46:01.093Z,59.20
2022-07-29T13:48:28.214Z,58.70
2022-07-29T13:50:55.312Z,58.90
2022-07-29T13:53:27.199Z,59.90
2022-07-29T13:55:55.040Z,60.70
2022-07-29T13:58:22.128Z,61.60
2022-07-29T14:00:49.134Z,61.80
2022-07-29T14:03:16.352Z,61.90
2022-07-29T14:05:43.744Z,62.40
2022-07-29T14:08:12.004Z,62.70
2022-07-29T14:10:39.806Z,62.80
2022-07-29T14:13:06.760Z,63.20
2022-07-29T14:15:51.785Z,64.20
2022-07-29T14:18:18.801Z,63.40
2022-07-29T14:20:45.740Z,63.00
2022-07-29T14:23:13.011Z,62.80
2022-07-29T14:25:43.233Z,63.30
2022-07-29T14:28:11.767Z,64.20
2022-07-29T14:30:41.769Z,65.40
2022-07-29T14:33:08.941Z,66.90
2022-07-29T14:35:36.061Z,65.10
2022-07-29T14:38:03.436Z,61.20
2022-07-29T14:40:30.680Z,58.80
2022-07-29T14:42:57.693Z,56.20
2022-07-29T14:45:24.697Z,55.60
2022-07-29T14:47:51.705Z,55.70
2022-07-29T14:50:31.142Z,55.90
2022-07-29T14:53:00.893Z,54.90
2022-07-29T14:55:28.254Z,54.90
2022-07-29T14:58:05.808Z,56.20
2022-07-29T15:00:37.679Z,57.10
2022-07-29T15:03:06.168Z,56.60
2022-07-29T15:05:33.938Z,54.60
2022-07-29T15:08:01.002Z,54.80
2022-07-29T15:10:28.347Z,54.20
2022-07-29T15:12:57.196Z,53.40
2022-07-29T15:15:24.426Z,51.40
2022-07-29T15:17:51.501Z,51.40
2022-07-29T15:20:19.065Z,50.30
2022-07-29T15:22:46.070Z,48.50
2022-07-29T15:25:13.222Z,48.00
2022-07-29T15:27:40.118Z,49.20
2022-07-29T15:30:08.430Z,48.80
2022-07-29T15:32:35.397Z,47.00
2022-07-29T15:35:02.553Z,45.30
2022-07-29T15:37:49.120Z,44.60
2022-07-29T15:40:16.651Z,46.60
2022-07-29T15:42:43.578Z,48.50
2022-07-29T15:45:10.937Z,50.40
2022-07-29T15:47:37.867Z,50.90
2022-07-29T15:50:07.267Z,51.40
2022-07-29T15:52:34.191Z,52.10
2022-07-29T15:55:01.082Z,52.50
2022-07-29T15:57:27.978Z,52.60
2022-07-29T15:59:54.951Z,53.40
2022-07-29T16:02:21.936Z,51.60
2022-07-29T16:04:48.991Z,52.00
2022-07-29T16:07:16.430Z,52.00
2022-07-29T16:09:49.340Z,52.80
2022-07-29T16:12:20.017Z,53.60
2022-07-29T16:14:50.807Z,54.30
2022-07-29T16:17:19.118Z,55.10
2022-07-29T16:19:48.659Z,55.40
2022-07-29T16:22:15.587Z,55.60
2022-07-29T16:24:42.966Z,55.90
2022-07-29T16:27:10.184Z,55.20
2022-07-29T16:29:37.409Z,55.50
2022-07-29T16:32:06.423Z,57.80
2022-07-29T16:34:33.645Z,63.00
2022-07-29T16:37:00.860Z,68.00
2022-07-29T16:39:27.956Z,69.80
2022-07-29T16:41:59.529Z,72.40
2022-07-29T16:44:28.052Z,74.40
2022-07-29T16:46:59.131Z,75.50
2022-07-29T16:49:28.289Z,77.10
2022-07-29T16:51:55.332Z,79.20
2022-07-29T16:54:22.707Z,80.10
2022-07-29T16:56:49.684Z,81.60
2022-07-29T16:59:16.705Z,82.40
2022-07-29T17:01:43.655Z,83.10
2022-07-29T17:04:11.832Z,83.20
2022-07-29T17:06:41.320Z,84.10
2022-07-29T17:09:14.921Z,85.60
2022-07-29T17:11:54.113Z,86.90
2022-07-29T17:14:30.393Z,88.30
2022-07-29T17:17:02.195Z,91.80
2022-07-29T17:19:35.800Z,93.80
2022-07-29T17:22:14.070Z,97.70
2022-07-29T17:24:46.061Z,99.90
2022-07-29T17:27:13.179Z,99.90
2022-07-29T17:29:41.361Z,99.90
2022-07-29T17:32:10.503Z,99.90
2022-07-29T17:34:42.672Z,99.90
2022-07-29T17:37:12.230Z,99.90
2022-07-29T17:39:41.515Z,99.90
2022-07-29T17:42:12.866Z,99.90
2022-07-29T17:44:41.477Z,99.90
2022-07-29T17:47:15.603Z,99.90
2022-07-29T17:49:44.701Z,99.90
2022-07-29T17:52:11.767Z,99.90
2022-07-29T17:54:38.749Z,99.90
2022-07-29T17:57:05.709Z,99.90
2022-07-29T17:59:32.615Z,99.90
2022-07-29T18:01:59.572Z,99.90
2022-07-29T18:04:26.529Z,99.90
2022-07-29T18:06:53.708Z,99.90
2022-07-29T18:09:20.706Z,99.90
2022-07-29T18:11:48.701Z,99.90
2022-07-29T18:14:15.809Z,99.90
2022-07-29T18:16:42.764Z,99.90
2022-07-29T18:19:09.686Z,99.90
2022-07-29T18:21:51.332Z,99.90
2022-07-29T18:24:25.905Z,99.90
2022-07-29T18:26:53.703Z,99.90
2022-07-29T18:29:20.912Z,99.90
2022-07-29T18:31:47.971Z,99.90
2022-07-29T18:34:14.926Z,99.90
2022-07-29T18:36:41.809Z,99.90
2022-07-29T18:39:08.710Z,99.90
2022-07-29T18:41:50.499Z,99.90
2022-07-29T18:44:22.849Z,99.90
2022-07-29T18:46:51.948Z,99.90
2022-07-29T18:49:19.561Z,99.90
2022-07-29T18:51:47.249Z,99.90
2022-07-29T18:54:14.258Z,99.90
2022-07-29T18:56:41.189Z,99.90
2022-07-29T18:59:08.154Z,99.90
2022-07-29T19:01:35.330Z,99.90
2022-07-29T19:04:02.440Z,99.90
2022-07-29T19:06:29.957Z,99.90
2022-07-29T19:08:56.937Z,99.90
2022-07-29T19:11:23.923Z,99.90
2022-07-29T19:13:50.907Z,99.90
2022-07-29T19:16:18.369Z,99.90
2022-07-29T19:18:47.184Z,99.90
2022-07-29T19:21:14.238Z,99.90
2022-07-29T19:24:02.439Z,99.90
2022-07-29T19:26:29.571Z,99.90
2022-07-29T19:28:56.479Z,99.90
2022-07-29T19:31:23.702Z,99.90
2022-07-29T19:33:50.788Z,99.90
2022-07-29T19:36:17.736Z,99.90
2022-07-29T19:38:44.610Z,99.90
2022-07-29T19:41:13.034Z,99.90
2022-07-29T19:43:50.915Z,99.90
2022-07-29T19:46:24.085Z,99.90
2022-07-29T19:48:52.857Z,99.90
2022-07-29T19:51:19.872Z,99.90
2022-07-29T19:53:46.963Z,99.90
2022-07-29T19:56:13.878Z,99.90
2022-07-29T19:58:42.144Z,99.90
2022-07-29T20:01:11.355Z,99.90
2022-07-29T20:03:42.051Z,99.90
2022-07-29T20:06:09.078Z,99.90
2022-07-29T20:08:36.774Z,99.90
2022-07-29T20:11:04.473Z,99.90
2022-07-29T20:13:33.519Z,99.90
2022-07-29T20:16:02.470Z,99.90
2022-07-29T20:18:29.512Z,99.90
2022-07-29T20:20:57.401Z,99.90
2022-07-29T20:23:24.295Z,99.90
2022-07-29T20:25:51.485Z,99.90
2022-07-29T20:28:18.472Z,99.90
2022-07-29T20:30:45.413Z,99.90
2022-07-29T20:33:14.623Z,99.90
2022-07-29T20:35:41.628Z,99.90
2022-07-29T20:38:08.520Z,99.90
2022-07-29T20:40:35.720Z,99.90
2022-07-29T20:43:02.620Z,99.90
2022-07-29T20:45:29.584Z,99.90
2022-07-29T20:47:56.498Z,99.90
2022-07-29T20:50:24.458Z,99.90
2022-07-29T20:52:52.583Z,99.90
2022-07-29T20:55:20.468Z,99.90
2022-07-29T20:57:47.405Z,99.90
2022-07-29T21:00:14.771Z,99.90
2022-07-29T21:02:41.949Z,99.90
2022-07-29T21:05:09.605Z,99.90
2022-07-29T21:07:36.609Z,99.90
2022-07-29T21:10:04.653Z,99.90
2022-07-29T21:12:31.635Z,99.90
2022-07-29T21:14:58.516Z,99.90
2022-07-29T21:17:25.491Z,99.90
2022-07-29T21:19:53.154Z,99.90
2022-07-29T21:22:22.098Z,99.90
2022-07-29T21:24:50.367Z,99.90
2022-07-29T21:27:38.510Z,99.90
2022-07-29T21:30:08.508Z,99.90
2022-07-29T21:32:35.687Z,99.90
2022-07-29T21:35:03.646Z,99.90
2022-07-29T21:37:49.542Z,99.90
2022-07-29T21:40:16.474Z,99.90
2022-07-29T21:42:44.067Z,99.90
2022-07-29T21:45:15.485Z,99.90
2022-07-29T21:47:42.392Z,99.90
2022-07-29T21:50:09.739Z,99.90
2022-07-29T21:52:36.702Z,99.90
2022-07-29T21:55:04.890Z,99.90
2022-07-29T21:57:32.070Z,99.90
2022-07-29T22:00:02.728Z,99.90
2022-07-29T22:02:30.144Z,99.90
2022-07-29T22:04:57.072Z,99.90
2022-07-29T22:07:23.958Z,99.90
2022-07-29T22:09:50.961Z,99.90
2022-07-29T22:12:17.847Z,99.90
2022-07-29T22:14:44.870Z,99.90
2022-07-29T22:17:12.895Z,99.90
2022-07-29T22:19:41.063Z,99.90
2022-07-29T22:22:08.146Z,99.90
2022-07-29T22:24:35.058Z,99.90
2022-07-29T22:27:02.465Z,99.90
2022-07-29T22:29:29.631Z,99.90
2022-07-29T22:31:56.907Z,99.90
2022-07-29T22:34:23.979Z,99.90
2022-07-29T22:36:55.949Z,99.90
2022-07-29T22:39:23.155Z,99.90
2022-07-29T22:41:50.435Z,99.90
2022-07-29T22:44:17.751Z,99.90
2022-07-29T22:46:44.947Z,99.90
2022-07-29T22:49:11.964Z,99.90
2022-07-29T22:51:39.191Z,99.90
2022-07-29T22:54:06.367Z,99.90
2022-07-29T22:56:33.391Z,99.90
2022-07-29T22:59:00.312Z,99.90
2022-07-29T23:01:37.904Z,99.90
2022-07-29T23:04:06.699Z,99.90
2022-07-29T23:06:34.325Z,99.90
2022-07-29T23:09:01.227Z,99.90
2022-07-29T23:11:28.256Z,99.90
2022-07-29T23:13:55.168Z,99.90
2022-07-29T23:16:26.786Z,99.90
2022-07-29T23:18:55.255Z,99.90
2022-07-29T23:21:22.299Z,99.90
2022-07-29T23:23:49.494Z,99.90
2022-07-29T23:26:17.041Z,99.90
2022-07-29T23:28:45.346Z,99.90
2022-07-29T23:31:13.402Z,99.90
2022-07-29T23:33:41.688Z,99.90
2022-07-29T23:36:08.701Z,99.90
2022-07-29T23:38:39.120Z,99.90
2022-07-29T23:41:08.868Z,99.90
2022-07-29T23:43:37.834Z,99.90
2022-07-29T23:46:05.381Z,99.90
2022-07-29T23:48:33.669Z,99.90
2022-07-29T23:51:01.046Z,99.90
2022-07-29T23:53:28.732Z,99.90
2022-07-29T23:55:56.609Z,99.90
2022-07-29T23:58:24.147Z,99.90
